createdAt,value
2023-05-19T00:01:20.673Z,8.80
2023-05-19T00:03:57.885Z,9.60
2023-05-19T00:06:27.507Z,10.60
2023-05-19T00:09:01.750Z,9.90
2023-05-19T00:11:29.804Z,9.05
2023-05-19T00:13:58.871Z,10.10
2023-05-19T00:16:27.760Z,11.10
2023-05-19T00:18:54.896Z,10.57
2023-05-19T00:21:22.010Z,10.27
2023-05-19T00:23:48.994Z,9.63
2023-05-19T00:26:18.124Z,10.32
2023-05-19T00:28:55.001Z,9.70
2023-05-19T00:31:22.191Z,9.48
2023-05-19T00:33:49.141Z,10.25
2023-05-19T00:36:16.460Z,12.98
2023-05-19T00:38:43.437Z,10.30
2023-05-19T00:41:11.193Z,9.75
2023-05-19T00:43:38.125Z,11.05
2023-05-19T00:46:05.149Z,11.15
2023-05-19T00:48:32.201Z,11.15
2023-05-19T00:51:04.934Z,12.02
2023-05-19T00:53:34.108Z,11.40
2023-05-19T00:56:03.396Z,11.50
2023-05-19T00:58:33.020Z,11.88
2023-05-19T01:01:04.790Z,10.45
2023-05-19T01:03:35.374Z,9.82
2023-05-19T01:06:05.861Z,10.23
2023-05-19T01:08:34.591Z,12.63
2023-05-19T01:11:01.778Z,11.57
2023-05-19T01:13:29.333Z,11.50
2023-05-19T01:16:19.453Z,12.02
2023-05-19T01:19:11.119Z,11.43
2023-05-19T01:21:51.442Z,12.20
2023-05-19T01:24:41.080Z,11.48
2023-05-19T01:27:38.687Z,12.13
2023-05-19T01:30:25.672Z,11.43
2023-05-19T01:33:00.513Z,12.20
2023-05-19T01:35:28.922Z,11.68
2023-05-19T01:38:00.369Z,10.98
2023-05-19T01:40:28.893Z,11.40
2023-05-19T01:42:59.078Z,11.60
2023-05-19T01:45:28.216Z,10.95
2023-05-19T01:47:57.945Z,12.17
2023-05-19T01:50:25.052Z,11.15
2023-05-19T01:52:52.144Z,11.35
2023-05-19T01:55:19.493Z,11.05
2023-05-19T01:58:02.718Z,11.65
2023-05-19T02:00:53.958Z,11.32
2023-05-19T02:03:38.718Z,11.27
2023-05-19T02:06:30.175Z,10.85
2023-05-19T02:09:12.369Z,10.63
2023-05-19T02:12:11.068Z,11.93
2023-05-19T02:14:49.308Z,11.75
2023-05-19T02:17:18.881Z,11.57
2023-05-19T02:19:46.775Z,11.35
2023-05-19T02:22:14.948Z,11.55
2023-05-19T02:24:41.860Z,11.95
2023-05-19T02:27:08.983Z,11.43
2023-05-19T02:29:36.538Z,11.50
2023-05-19T02:32:03.615Z,11.30
2023-05-19T02:34:30.876Z,11.73
2023-05-19T02:36:57.942Z,10.43
2023-05-19T02:39:25.019Z,11.55
2023-05-19T02:41:52.084Z,11.85
2023-05-19T02:44:19.164Z,10.88
2023-05-19T02:46:46.286Z,10.15
2023-05-19T02:49:13.267Z,10.48
2023-05-19T02:51:40.440Z,11.88
2023-05-19T02:54:07.522Z,10.88
2023-05-19T02:56:34.521Z,10.98
2023-05-19T02:59:01.901Z,11.07
2023-05-19T03:01:29.004Z,11.00
2023-05-19T03:03:56.179Z,10.55
2023-05-19T03:06:23.760Z,11.85
2023-05-19T03:08:51.235Z,10.60
2023-05-19T03:11:18.303Z,12.35
2023-05-19T03:13:45.536Z,12.13
2023-05-19T03:16:12.904Z,12.80
2023-05-19T03:18:39.963Z,13.13
2023-05-19T03:21:07.014Z,13.10
2023-05-19T03:23:34.005Z,16.65
2023-05-19T03:26:01.534Z,15.85
2023-05-19T03:28:28.687Z,14.88
2023-05-19T03:30:55.775Z,16.15
2023-05-19T03:33:30.165Z,16.25
2023-05-19T03:35:57.825Z,16.52
2023-05-19T03:38:25.847Z,15.93
2023-05-19T03:40:58.413Z,16.95
2023-05-19T03:43:25.392Z,17.92
2023-05-19T03:46:02.725Z,17.52
2023-05-19T03:48:41.638Z,16.47
2023-05-19T03:51:28.888Z,17.65
2023-05-19T03:54:02.478Z,16.98
2023-05-19T03:56:30.155Z,19.55
2023-05-19T03:58:57.104Z,16.95
2023-05-19T04:01:24.261Z,17.30
2023-05-19T04:03:51.294Z,16.42
2023-05-19T04:06:19.304Z,17.67
2023-05-19T04:08:47.320Z,17.13
2023-05-19T04:11:14.441Z,16.38
2023-05-19T04:13:41.389Z,16.95
2023-05-19T04:16:08.598Z,17.70
2023-05-19T04:18:35.907Z,16.50
2023-05-19T04:21:04.621Z,17.10
2023-05-19T04:23:32.782Z,16.02
2023-05-19T04:26:01.795Z,16.58
2023-05-19T04:28:30.559Z,16.73
2023-05-19T04:30:58.911Z,17.73
2023-05-19T04:33:26.351Z,16.52
2023-05-19T04:35:53.613Z,15.88
2023-05-19T04:38:22.318Z,17.10
2023-05-19T04:40:50.877Z,16.23
2023-05-19T04:43:19.573Z,15.52
2023-05-19T04:45:47.565Z,15.88
2023-05-19T04:48:15.484Z,15.80
2023-05-19T04:50:42.560Z,15.38
2023-05-19T04:53:10.420Z,14.93
2023-05-19T04:55:39.067Z,13.60
2023-05-19T04:58:07.058Z,13.48
2023-05-19T05:00:36.099Z,13.85
2023-05-19T05:03:07.335Z,13.75
2023-05-19T05:05:35.354Z,12.80
2023-05-19T05:08:03.422Z,11.88
2023-05-19T05:10:35.718Z,12.82
2023-05-19T05:13:03.264Z,11.82
2023-05-19T05:15:30.715Z,12.05
2023-05-19T05:18:00.788Z,10.75
2023-05-19T05:20:28.319Z,10.73
2023-05-19T05:22:56.110Z,10.95
2023-05-19T05:25:23.868Z,10.05
2023-05-19T05:27:51.509Z,9.70
2023-05-19T05:30:19.106Z,10.80
2023-05-19T05:32:46.545Z,11.35
2023-05-19T05:35:28.341Z,11.20
2023-05-19T05:37:56.110Z,10.35
2023-05-19T05:40:23.857Z,10.10
2023-05-19T05:42:53.231Z,10.55
2023-05-19T05:45:23.737Z,10.27
2023-05-19T05:47:53.125Z,8.90
2023-05-19T05:50:20.585Z,8.50
2023-05-19T05:52:48.788Z,9.18
2023-05-19T05:57:45.454Z,10.60
2023-05-19T06:00:16.162Z,8.35
2023-05-19T06:02:47.575Z,8.35
2023-05-19T06:05:16.252Z,8.10
2023-05-19T06:07:44.966Z,7.10
2023-05-19T06:10:15.644Z,7.20
2023-05-19T06:12:43.548Z,7.93
2023-05-19T06:15:11.853Z,6.65
2023-05-19T06:17:58.874Z,6.72
2023-05-19T06:20:25.953Z,6.70
2023-05-19T06:22:52.958Z,6.95
2023-05-19T06:25:25.082Z,6.65
2023-05-19T06:27:52.601Z,7.25
2023-05-19T06:30:20.433Z,7.63
2023-05-19T06:32:57.596Z,8.25
2023-05-19T06:35:26.120Z,7.63
2023-05-19T06:37:53.447Z,7.72
2023-05-19T06:40:21.022Z,7.70
2023-05-19T06:42:48.268Z,7.55
2023-05-19T06:45:22.721Z,7.28
2023-05-19T06:47:51.599Z,7.78
2023-05-19T06:50:19.024Z,7.78
2023-05-19T06:52:49.167Z,8.45
2023-05-19T06:55:16.626Z,7.70
2023-05-19T06:57:43.830Z,8.00
2023-05-19T07:00:14.596Z,8.10
2023-05-19T07:02:46.845Z,7.32
2023-05-19T07:05:14.634Z,7.57
2023-05-19T07:07:44.326Z,8.15
2023-05-19T07:10:14.377Z,7.95
2023-05-19T07:12:41.801Z,8.60
2023-05-19T07:15:09.593Z,7.10
2023-05-19T07:17:37.661Z,7.78
2023-05-19T07:20:10.241Z,7.60
2023-05-19T07:22:40.226Z,8.15
2023-05-19T07:25:08.563Z,8.20
2023-05-19T07:27:36.137Z,8.38
2023-05-19T07:30:04.858Z,8.02
2023-05-19T07:32:31.883Z,7.38
2023-05-19T07:34:58.935Z,8.00
2023-05-19T07:37:26.646Z,7.60
2023-05-19T07:39:53.659Z,8.23
2023-05-19T07:42:20.728Z,7.95
2023-05-19T07:44:47.848Z,7.95
2023-05-19T07:47:14.806Z,8.18
2023-05-19T07:49:41.910Z,7.10
2023-05-19T07:52:09.315Z,7.10
2023-05-19T07:54:36.513Z,7.72
2023-05-19T07:57:03.644Z,8.35
2023-05-19T07:59:30.742Z,8.02
2023-05-19T08:01:57.705Z,7.45
2023-05-19T08:04:24.797Z,7.75
2023-05-19T08:06:53.279Z,7.65
2023-05-19T08:09:20.412Z,7.75
2023-05-19T08:11:47.508Z,7.53
2023-05-19T08:14:14.592Z,6.80
2023-05-19T08:16:43.329Z,7.47
2023-05-19T08:19:10.328Z,6.78
2023-05-19T08:21:37.582Z,6.32
2023-05-19T08:24:04.766Z,7.25
2023-05-19T08:26:36.900Z,7.47
2023-05-19T08:29:05.021Z,6.93
2023-05-19T08:31:32.180Z,6.53
2023-05-19T08:33:59.305Z,6.53
2023-05-19T08:36:26.356Z,7.95
2023-05-19T08:38:53.345Z,7.18
2023-05-19T08:41:21.829Z,6.72
2023-05-19T08:43:53.041Z,7.60
2023-05-19T08:46:23.204Z,7.68
2023-05-19T08:48:59.471Z,7.95
2023-05-19T08:51:57.784Z,9.02
2023-05-19T08:54:34.374Z,7.80
2023-05-19T08:57:02.542Z,7.18
2023-05-19T08:59:31.059Z,7.25
2023-05-19T09:01:58.864Z,7.30
2023-05-19T09:04:29.922Z,7.25
2023-05-19T09:06:57.272Z,7.65
2023-05-19T09:09:24.429Z,7.70
2023-05-19T09:11:51.511Z,7.18
2023-05-19T09:14:18.650Z,7.50
2023-05-19T09:16:48.511Z,7.70
2023-05-19T09:19:16.296Z,6.70
2023-05-19T09:21:44.635Z,8.07
2023-05-19T09:24:11.924Z,7.25
2023-05-19T09:26:41.257Z,7.10
2023-05-19T09:29:26.464Z,7.15
2023-05-19T09:31:56.150Z,6.85
2023-05-19T09:34:25.196Z,7.70
2023-05-19T09:36:53.926Z,9.77
2023-05-19T09:39:24.397Z,7.60
2023-05-19T09:41:55.315Z,6.95
2023-05-19T09:44:23.792Z,7.00
2023-05-19T09:46:52.000Z,8.48
2023-05-19T09:49:23.558Z,6.72
2023-05-19T09:52:02.691Z,7.10
2023-05-19T09:54:32.503Z,6.68
2023-05-19T09:59:35.072Z,8.25
2023-05-19T10:02:03.158Z,7.05
2023-05-19T10:04:31.316Z,6.90
2023-05-19T10:07:05.885Z,6.22
2023-05-19T10:09:34.404Z,6.47
2023-05-19T10:12:02.771Z,5.72
2023-05-19T10:14:30.295Z,5.15
2023-05-19T10:16:59.039Z,4.80
2023-05-19T10:19:29.462Z,5.17
2023-05-19T10:21:58.003Z,6.18
2023-05-19T10:24:25.146Z,6.10
2023-05-19T10:26:58.323Z,6.07
2023-05-19T10:29:31.017Z,5.90
2023-05-19T10:32:10.781Z,6.50
2023-05-19T10:34:50.599Z,6.03
2023-05-19T10:37:25.293Z,5.65
2023-05-19T10:39:53.060Z,6.10
2023-05-19T10:42:29.733Z,6.28
2023-05-19T10:45:28.030Z,5.65
2023-05-19T10:47:56.115Z,6.60
2023-05-19T10:50:24.002Z,6.60
2023-05-19T10:52:56.146Z,5.53
2023-05-19T10:56:04.355Z,6.65
2023-05-19T10:58:46.743Z,5.75
2023-05-19T11:01:16.802Z,5.82
2023-05-19T11:03:55.113Z,5.85
2023-05-19T11:06:32.717Z,7.50
2023-05-19T11:09:38.206Z,5.40
2023-05-19T11:12:08.608Z,6.72
2023-05-19T11:14:35.830Z,6.60
2023-05-19T11:17:02.945Z,6.80
2023-05-19T11:19:31.510Z,7.22
2023-05-19T11:22:12.228Z,7.97
2023-05-19T11:24:41.116Z,6.68
2023-05-19T11:27:38.475Z,6.85
2023-05-19T11:30:15.173Z,7.40
2023-05-19T11:32:43.249Z,7.45
2023-05-19T11:35:10.702Z,7.45
2023-05-19T11:37:37.986Z,7.57
2023-05-19T11:40:07.502Z,7.88
2023-05-19T11:42:35.511Z,6.55
2023-05-19T11:45:03.203Z,6.88
2023-05-19T11:47:42.028Z,7.85
2023-05-19T11:50:14.794Z,7.22
2023-05-19T11:52:45.439Z,8.18
2023-05-19T11:55:22.359Z,7.70
2023-05-19T11:58:03.812Z,7.72
2023-05-19T12:00:40.118Z,7.55
2023-05-19T12:03:09.576Z,7.43
2023-05-19T12:05:42.788Z,7.00
2023-05-19T12:08:14.022Z,8.50
2023-05-19T12:10:41.291Z,7.75
2023-05-19T12:13:10.327Z,8.38
2023-05-19T12:15:39.406Z,8.07
2023-05-19T12:18:07.552Z,8.23
2023-05-19T12:20:38.004Z,7.95
2023-05-19T12:23:06.027Z,8.55
2023-05-19T12:25:33.545Z,7.22
2023-05-19T12:28:04.956Z,8.43
2023-05-19T12:30:33.961Z,8.32
2023-05-19T12:33:02.455Z,8.00
2023-05-19T12:35:36.558Z,10.43
2023-05-19T12:38:09.389Z,8.38
2023-05-19T12:40:37.906Z,9.15
2023-05-19T12:43:07.017Z,8.83
2023-05-19T12:45:38.999Z,8.77
2023-05-19T12:48:11.664Z,8.05
2023-05-19T12:50:39.083Z,8.55
2023-05-19T12:53:16.927Z,8.50
2023-05-19T12:55:45.762Z,8.68
2023-05-19T12:58:13.582Z,7.40
2023-05-19T13:00:47.612Z,8.55
2023-05-19T13:03:19.811Z,8.65
2023-05-19T13:05:49.320Z,8.32
2023-05-19T13:08:18.836Z,8.52
2023-05-19T13:10:47.945Z,9.43
2023-05-19T13:13:15.080Z,8.88
2023-05-19T13:15:44.688Z,7.97
2023-05-19T13:18:13.596Z,8.30
2023-05-19T13:20:42.499Z,8.40
2023-05-19T13:23:13.954Z,8.27
2023-05-19T13:25:41.720Z,8.50
2023-05-19T13:28:09.696Z,7.75
2023-05-19T13:30:39.396Z,8.10
2023-05-19T13:33:07.001Z,7.90
2023-05-19T13:35:37.989Z,7.20
2023-05-19T13:38:10.626Z,7.97
2023-05-19T13:40:38.444Z,7.95
2023-05-19T13:43:06.243Z,7.70
2023-05-19T13:45:33.550Z,8.60
2023-05-19T13:48:00.659Z,8.15
2023-05-19T13:50:27.794Z,7.90
2023-05-19T13:52:54.884Z,8.20
2023-05-19T13:55:22.781Z,7.80
2023-05-19T13:57:49.933Z,8.98
2023-05-19T14:00:18.522Z,8.43
2023-05-19T14:02:45.690Z,8.60
2023-05-19T14:05:12.868Z,8.05
2023-05-19T14:07:40.026Z,8.25
2023-05-19T14:10:08.847Z,8.32
2023-05-19T14:12:49.357Z,8.15
2023-05-19T14:15:20.182Z,8.88
2023-05-19T14:17:49.228Z,8.90
2023-05-19T14:20:16.361Z,8.38
2023-05-19T14:22:43.365Z,8.10
2023-05-19T14:25:10.586Z,8.23
2023-05-19T14:27:37.726Z,9.43
2023-05-19T14:30:05.067Z,8.90
2023-05-19T14:32:32.216Z,9.13
2023-05-19T14:34:59.215Z,8.57
2023-05-19T14:37:29.458Z,8.20
2023-05-19T14:39:57.780Z,9.05
2023-05-19T14:42:25.315Z,7.90
2023-05-19T14:44:52.451Z,8.23
2023-05-19T14:47:19.399Z,8.20
2023-05-19T14:49:46.446Z,9.00
2023-05-19T14:52:13.452Z,8.27
2023-05-19T14:54:40.520Z,8.32
2023-05-19T14:57:08.336Z,8.32
2023-05-19T14:59:38.965Z,8.38
2023-05-19T15:02:06.300Z,8.52
2023-05-19T15:04:33.348Z,7.75
2023-05-19T15:09:30.325Z,9.07
2023-05-19T15:11:57.321Z,9.00
2023-05-19T15:14:24.500Z,8.27
2023-05-19T15:16:51.678Z,8.65
2023-05-19T15:19:18.846Z,7.03
2023-05-19T15:21:46.068Z,7.63
2023-05-19T15:24:13.060Z,7.45
2023-05-19T15:26:40.072Z,8.20
2023-05-19T15:29:07.171Z,7.55
2023-05-19T15:31:35.730Z,7.68
2023-05-19T15:34:04.426Z,7.28
2023-05-19T15:36:31.804Z,7.40
2023-05-19T15:38:58.862Z,7.35
2023-05-19T15:41:26.179Z,7.10
2023-05-19T15:43:53.877Z,7.95
2023-05-19T15:46:20.960Z,8.45
2023-05-19T15:48:48.139Z,7.50
2023-05-19T15:51:15.567Z,7.28
2023-05-19T15:53:42.876Z,7.68
2023-05-19T15:56:09.860Z,7.85
2023-05-19T15:58:36.922Z,7.10
2023-05-19T16:01:04.155Z,7.47
2023-05-19T16:03:31.771Z,7.50
2023-05-19T16:05:58.903Z,7.38
2023-05-19T16:08:26.073Z,7.88
2023-05-19T16:10:54.002Z,7.90
2023-05-19T16:13:21.528Z,7.25
2023-05-19T16:15:48.899Z,7.20
2023-05-19T16:18:16.567Z,7.60
2023-05-19T16:20:44.358Z,7.15
2023-05-19T16:23:11.453Z,9.20
2023-05-19T16:25:38.581Z,7.57
2023-05-19T16:28:06.263Z,7.68
2023-05-19T16:30:33.437Z,7.63
2023-05-19T16:33:00.580Z,6.93
2023-05-19T16:35:31.271Z,7.63
2023-05-19T16:37:58.585Z,7.10
2023-05-19T16:40:26.069Z,7.30
2023-05-19T16:42:53.777Z,7.80
2023-05-19T16:45:20.866Z,6.82
2023-05-19T16:47:48.104Z,6.80
2023-05-19T16:50:15.174Z,7.70
2023-05-19T16:52:42.253Z,7.65
2023-05-19T16:55:09.692Z,7.10
2023-05-19T16:57:36.865Z,6.93
2023-05-19T17:00:04.282Z,7.32
2023-05-19T17:02:31.589Z,7.13
2023-05-19T17:04:59.842Z,7.22
2023-05-19T17:07:29.285Z,6.75
2023-05-19T17:09:56.427Z,7.53
2023-05-19T17:12:23.486Z,7.85
2023-05-19T17:14:52.325Z,6.85
2023-05-19T17:17:19.449Z,6.73
2023-05-19T17:19:47.110Z,6.53
2023-05-19T17:22:14.103Z,7.05
2023-05-19T17:24:41.522Z,7.30
2023-05-19T17:27:11.464Z,7.65
2023-05-19T17:29:38.595Z,6.60
2023-05-19T17:32:05.712Z,7.00
2023-05-19T17:34:32.857Z,7.10
2023-05-19T17:36:59.862Z,7.55
2023-05-19T17:39:26.921Z,7.35
2023-05-19T17:41:54.071Z,7.18
2023-05-19T17:44:21.164Z,7.32
2023-05-19T17:46:48.342Z,8.15
2023-05-19T17:49:15.658Z,8.18
2023-05-19T17:51:42.905Z,7.20
2023-05-19T17:54:09.984Z,7.03
2023-05-19T17:56:42.616Z,7.28
2023-05-19T17:59:10.058Z,7.47
2023-05-19T18:01:37.609Z,6.80
2023-05-19T18:04:05.122Z,7.43
2023-05-19T18:06:32.525Z,8.10
2023-05-19T18:09:01.483Z,7.13
2023-05-19T18:11:28.770Z,9.43
2023-05-19T18:13:55.814Z,8.13
2023-05-19T18:16:22.910Z,8.93
2023-05-19T18:18:50.840Z,7.82
2023-05-19T18:21:18.432Z,8.27
2023-05-19T18:23:46.316Z,7.75
2023-05-19T18:26:13.455Z,8.23
2023-05-19T18:28:41.730Z,8.32
2023-05-19T18:31:17.650Z,8.13
2023-05-19T18:33:45.597Z,8.98
2023-05-19T18:36:13.756Z,8.13
2023-05-19T18:38:41.268Z,7.15
2023-05-19T18:41:08.624Z,7.95
2023-05-19T18:43:35.721Z,7.50
2023-05-19T18:46:02.816Z,8.73
2023-05-19T18:48:29.839Z,7.72
2023-05-19T18:50:57.519Z,8.18
2023-05-19T18:53:24.796Z,7.82
2023-05-19T18:55:51.753Z,7.50
2023-05-19T18:58:19.124Z,8.18
2023-05-19T19:00:46.270Z,7.90
2023-05-19T19:03:13.327Z,8.02
2023-05-19T19:05:40.383Z,8.70
2023-05-19T19:08:07.640Z,7.85
2023-05-19T19:10:39.174Z,7.63
2023-05-19T19:13:06.564Z,8.02
2023-05-19T19:15:33.490Z,7.63
2023-05-19T19:18:00.681Z,7.82
2023-05-19T19:20:27.813Z,7.60
2023-05-19T19:22:54.945Z,7.75
2023-05-19T19:25:23.516Z,8.90
2023-05-19T19:27:53.557Z,7.93
2023-05-19T19:30:20.693Z,7.85
2023-05-19T19:32:47.752Z,8.93
2023-05-19T19:35:16.158Z,7.55
2023-05-19T19:37:43.300Z,7.78
2023-05-19T19:40:10.829Z,7.50
2023-05-19T19:42:38.714Z,7.70
2023-05-19T19:45:07.133Z,8.23
2023-05-19T19:47:34.234Z,8.10
2023-05-19T19:50:02.799Z,7.90
2023-05-19T19:52:29.790Z,7.50
2023-05-19T19:54:57.519Z,6.78
2023-05-19T19:57:24.884Z,7.40
2023-05-19T19:59:55.368Z,7.30
2023-05-19T20:02:22.841Z,7.47
2023-05-19T20:04:49.850Z,7.85
2023-05-19T20:07:21.043Z,6.93
2023-05-19T20:09:49.846Z,7.85
2023-05-19T20:12:16.778Z,7.95
2023-05-19T20:14:43.832Z,8.60
2023-05-19T20:17:10.829Z,8.10
2023-05-19T20:19:37.910Z,7.57
2023-05-19T20:22:05.103Z,7.88
2023-05-19T20:24:32.052Z,7.72
2023-05-19T20:26:59.041Z,8.32
2023-05-19T20:29:26.150Z,7.88
2023-05-19T20:31:54.379Z,8.18
2023-05-19T20:34:22.578Z,7.60
2023-05-19T20:36:49.606Z,7.90
2023-05-19T20:39:16.757Z,7.20
2023-05-19T20:41:43.715Z,7.07
2023-05-19T20:44:11.881Z,7.55
2023-05-19T20:46:38.903Z,8.13
2023-05-19T20:49:05.956Z,7.40
2023-05-19T20:51:33.015Z,7.50
2023-05-19T20:54:00.333Z,8.07
2023-05-19T20:56:27.589Z,7.97
2023-05-19T20:58:54.741Z,7.55
2023-05-19T21:01:21.763Z,7.95
2023-05-19T21:03:48.742Z,7.25
2023-05-19T21:06:15.890Z,8.57
2023-05-19T21:08:42.900Z,8.32
2023-05-19T21:11:09.896Z,7.43
2023-05-19T21:13:39.384Z,10.73
2023-05-19T21:16:06.776Z,7.82
2023-05-19T21:18:35.120Z,8.30
2023-05-19T21:21:04.172Z,7.30
2023-05-19T21:23:31.261Z,7.65
2023-05-19T21:25:59.834Z,8.02
2023-05-19T21:28:26.828Z,8.13
2023-05-19T21:30:53.889Z,8.65
2023-05-19T21:33:20.988Z,7.97
2023-05-19T21:35:48.076Z,8.43
2023-05-19T21:38:23.388Z,8.07
2023-05-19T21:40:52.221Z,8.25
2023-05-19T21:43:19.722Z,9.38
2023-05-19T21:45:46.669Z,8.82
2023-05-19T21:48:13.767Z,9.48
2023-05-19T21:50:40.868Z,10.38
2023-05-19T21:53:08.004Z,10.63
2023-05-19T21:55:35.201Z,11.40
2023-05-19T21:58:02.742Z,12.45
2023-05-19T22:00:29.966Z,12.35
2023-05-19T22:02:57.026Z,12.90
2023-05-19T22:05:24.169Z,13.02
2023-05-19T22:07:51.223Z,14.02
2023-05-19T22:10:18.386Z,14.00
2023-05-19T22:12:45.370Z,14.27
2023-05-19T22:15:13.611Z,13.25
2023-05-19T22:17:40.818Z,13.27
2023-05-19T22:20:08.685Z,13.23
2023-05-19T22:22:35.878Z,12.38
2023-05-19T22:25:03.990Z,13.10
2023-05-19T22:27:31.032Z,15.40
2023-05-19T22:29:59.958Z,13.30
2023-05-19T22:32:27.162Z,13.02
2023-05-19T22:34:54.274Z,14.57
2023-05-19T22:37:23.795Z,12.50
2023-05-19T22:39:51.466Z,12.82
2023-05-19T22:42:18.878Z,12.30
2023-05-19T22:44:46.146Z,13.25
2023-05-19T22:47:14.069Z,12.73
2023-05-19T22:49:41.819Z,13.27
2023-05-19T22:52:11.847Z,11.95
2023-05-19T22:54:39.021Z,13.27
2023-05-19T22:57:06.702Z,14.30
2023-05-19T22:59:35.629Z,18.25
2023-05-19T23:02:02.681Z,20.98
2023-05-19T23:04:29.713Z,18.02
2023-05-19T23:06:56.742Z,19.80
2023-05-19T23:09:23.910Z,20.95
2023-05-19T23:11:51.103Z,17.10
2023-05-19T23:14:18.907Z,17.23
2023-05-19T23:16:46.421Z,18.30
2023-05-19T23:19:13.542Z,17.33
2023-05-19T23:21:41.279Z,16.38
2023-05-19T23:24:08.393Z,17.08
2023-05-19T23:26:35.315Z,17.52
2023-05-19T23:29:02.335Z,16.63
2023-05-19T23:31:30.804Z,17.75
2023-05-19T23:33:57.843Z,17.17
2023-05-19T23:36:24.810Z,18.77
2023-05-19T23:38:51.860Z,18.00
2023-05-19T23:41:18.993Z,20.42
2023-05-19T23:43:45.964Z,24.20
2023-05-19T23:46:13.031Z,23.90
2023-05-19T23:48:40.186Z,20.95
2023-05-19T23:51:07.134Z,16.73
2023-05-19T23:53:34.330Z,15.48
2023-05-19T23:56:01.409Z,15.32
2023-05-19T23:58:28.459Z,14.98
